Terminal Aerodrome Forecast
Issued by NWS Quad Cities IA IL

Home | Current Version | Previous Version | Text Only | Print | Product List | Glossary On
Versions: 1 2 3 4 5 6 7 8 9 10 11 12 13 14 15
974
FTUS43 KDVN 202341
TAFMLI
TAF
KMLI 202341Z 2100/2124 11005KT P6SM SCT060 BKN250
     FM210700 VRB03KT 4SM BR SCT120
      TEMPO 2108/2112 1 1/2SM BR SCT004
     FM211200 VRB03KT 4SM -SHRA BR VCTS BKN050CB
     FM211600 15009KT P6SM BKN080
     FM211900 17013KT P6SM SCT040 BKN150=

USA.gov is the U.S. government's official web portal to all federal, state and local government web resources and services.